createdAt,value
2019-05-12T00:01:58.789Z,101974.66
2019-05-12T00:04:28.050Z,101978.25
2019-05-12T00:06:58.562Z,101980.77
2019-05-12T00:09:28.259Z,101982.30
2019-05-12T00:11:59.043Z,101993.41
2019-05-12T00:14:28.279Z,101991.75
2019-05-12T00:16:58.017Z,101994.66
2019-05-12T00:19:28.562Z,101999.28
2019-05-12T00:21:58.713Z,101998.42
2019-05-12T00:24:28.098Z,101997.06
2019-05-12T00:26:58.468Z,101997.25
2019-05-12T00:29:28.684Z,101995.80
2019-05-12T00:31:58.018Z,102002.16
2019-05-12T00:34:28.835Z,102001.59
2019-05-12T00:36:57.819Z,102004.97
2019-05-12T00:39:27.834Z,102011.52
2019-05-12T00:41:58.703Z,102021.23
2019-05-12T00:44:28.439Z,102014.20
2019-05-12T00:46:57.675Z,102026.84
2019-05-12T00:49:28.750Z,102029.31
2019-05-12T00:51:58.690Z,102026.61
2019-05-12T00:54:28.476Z,102031.23
2019-05-12T00:56:58.525Z,102034.43
2019-05-12T00:59:28.006Z,102033.05
2019-05-12T01:01:58.627Z,102041.93
2019-05-12T01:04:29.110Z,102047.50
2019-05-12T01:06:58.264Z,102053.95
2019-05-12T01:09:28.155Z,102060.02
2019-05-12T01:11:58.828Z,102054.41
2019-05-12T01:14:27.921Z,102058.55
2019-05-12T01:16:57.848Z,102062.06
2019-05-12T01:19:28.734Z,102063.61
2019-05-12T01:21:58.682Z,102060.59
2019-05-12T01:24:28.337Z,102067.45
2019-05-12T01:26:58.203Z,102069.66
2019-05-12T01:29:28.168Z,102076.98
2019-05-12T01:31:59.116Z,102091.13
2019-05-12T01:34:27.947Z,102090.05
2019-05-12T01:37:00.965Z,102092.42
2019-05-12T01:39:29.657Z,102095.61
2019-05-12T01:42:00.003Z,102095.48
2019-05-12T01:44:28.804Z,102101.85
2019-05-12T01:46:57.855Z,102104.14
2019-05-12T01:49:28.953Z,102106.78
2019-05-12T01:51:58.195Z,102105.52
2019-05-12T01:54:27.781Z,102108.78
2019-05-12T01:56:58.583Z,102116.66
2019-05-12T01:59:28.720Z,102120.33
2019-05-12T02:01:58.091Z,102121.45
2019-05-12T02:04:28.581Z,102130.41
2019-05-12T02:06:58.904Z,102126.59
2019-05-12T02:09:29.218Z,102124.09
2019-05-12T02:11:58.281Z,102143.53
2019-05-12T02:14:27.801Z,102147.66
2019-05-12T02:16:58.186Z,102147.73
2019-05-12T02:19:28.252Z,102148.70
2019-05-12T02:21:57.916Z,102143.47
2019-05-12T02:24:29.830Z,102148.93
2019-05-12T02:26:57.853Z,102150.92
2019-05-12T02:29:28.495Z,102149.65
2019-05-12T02:32:07.261Z,102152.53
2019-05-12T02:34:36.011Z,102154.48
2019-05-12T02:37:05.500Z,102164.78
2019-05-12T02:39:35.213Z,102162.41
2019-05-12T02:42:05.180Z,102165.59
2019-05-12T02:44:34.716Z,102162.27
2019-05-12T02:47:05.117Z,102172.56
2019-05-12T02:49:35.051Z,102174.95
2019-05-12T02:52:05.079Z,102178.69
2019-05-12T02:54:50.551Z,102187.08
2019-05-12T02:57:04.885Z,102184.16
2019-05-12T02:59:35.221Z,102183.84
2019-05-12T03:02:05.419Z,102189.62
2019-05-12T03:04:36.345Z,102188.34
2019-05-12T03:07:06.522Z,102191.04
2019-05-12T03:09:35.540Z,102193.36
2019-05-12T03:12:05.861Z,102195.19
2019-05-12T03:14:40.230Z,102192.16
2019-05-12T03:17:05.025Z,102196.27
2019-05-12T03:19:34.565Z,102199.06
2019-05-12T03:22:05.083Z,102204.91
2019-05-12T03:24:34.267Z,102210.38
2019-05-12T03:27:04.362Z,102207.62
2019-05-12T03:29:34.320Z,102203.51
2019-05-12T03:32:08.138Z,102207.06
2019-05-12T03:34:38.168Z,102210.70
2019-05-12T03:37:07.621Z,102217.05
2019-05-12T03:39:34.831Z,102215.70
2019-05-12T03:42:05.183Z,102214.80
2019-05-12T03:44:35.245Z,102220.30
2019-05-12T03:47:05.120Z,102234.63
2019-05-12T03:49:34.776Z,102234.70
2019-05-12T03:52:05.027Z,102240.27
2019-05-12T03:54:35.059Z,102246.73
2019-05-12T03:57:04.572Z,102250.39
2019-05-12T03:59:34.865Z,102256.09
2019-05-12T04:02:04.708Z,102253.80
2019-05-12T04:04:34.795Z,102248.34
2019-05-12T04:07:05.208Z,102256.81
2019-05-12T04:09:34.908Z,102258.16
2019-05-12T04:12:05.231Z,102257.44
2019-05-12T04:14:34.654Z,102264.34
2019-05-12T04:17:04.740Z,102267.83
2019-05-12T04:19:34.460Z,102271.73
2019-05-12T04:22:05.496Z,102279.49
2019-05-12T04:24:35.874Z,102275.38
2019-05-12T04:27:05.361Z,102282.98
2019-05-12T04:29:34.928Z,102285.53
2019-05-12T04:32:05.151Z,102292.89
2019-05-12T04:34:34.395Z,102294.95
2019-05-12T04:37:04.555Z,102255.32
2019-05-12T04:39:34.254Z,102303.63
2019-05-12T04:42:05.314Z,102303.30
2019-05-12T04:44:34.813Z,102308.06
2019-05-12T04:47:05.505Z,102306.58
2019-05-12T04:49:34.668Z,102309.98
2019-05-12T04:52:05.290Z,102314.05
2019-05-12T04:54:35.607Z,102312.86
2019-05-12T04:57:04.503Z,102320.63
2019-05-12T04:59:34.504Z,102318.46
2019-05-12T05:02:05.448Z,102322.28
2019-05-12T05:04:34.717Z,102335.06
2019-05-12T05:07:04.463Z,102345.76
2019-05-12T05:09:35.145Z,102341.00
2019-05-12T05:12:04.711Z,102341.04
2019-05-12T05:14:34.116Z,102341.27
2019-05-12T05:17:05.519Z,102347.45
2019-05-12T05:19:34.392Z,102345.20
2019-05-12T05:22:04.327Z,102346.46
2019-05-12T05:24:33.942Z,102353.58
2019-05-12T05:27:04.407Z,102355.37
2019-05-12T05:29:35.291Z,102355.72
2019-05-12T05:32:03.655Z,102359.05
2019-05-12T05:34:34.293Z,102356.86
2019-05-12T05:37:05.051Z,102364.38
2019-05-12T05:39:35.394Z,102364.42
2019-05-12T05:42:04.600Z,102374.72
2019-05-12T05:44:34.674Z,102376.98
2019-05-12T05:47:04.357Z,102374.38
2019-05-12T05:49:34.217Z,102380.16
2019-05-12T05:52:03.571Z,102383.19
2019-05-12T05:54:35.924Z,102390.28
2019-05-12T05:57:05.842Z,102384.99
2019-05-12T05:59:36.582Z,102392.16
2019-05-12T06:02:04.943Z,102399.08
2019-05-12T06:04:34.268Z,102406.45
2019-05-12T06:07:04.101Z,102406.02
2019-05-12T06:09:33.935Z,102412.52
2019-05-12T06:12:05.217Z,102405.39
2019-05-12T06:14:34.254Z,102411.78
2019-05-12T06:17:04.324Z,102413.25
2019-05-12T06:19:34.265Z,102420.41
2019-05-12T06:22:03.958Z,102421.41
2019-05-12T06:24:33.487Z,102420.63
2019-05-12T06:27:14.309Z,102427.96
2019-05-12T06:29:33.313Z,102426.70
2019-05-12T06:32:06.199Z,102432.98
2019-05-12T06:34:34.267Z,102427.28
2019-05-12T06:37:12.080Z,102433.25
2019-05-12T06:39:34.374Z,102432.44
2019-05-12T06:42:12.269Z,102438.19
2019-05-12T06:44:33.611Z,102442.99
2019-05-12T06:47:07.082Z,102450.67
2019-05-12T06:49:33.769Z,102448.99
2019-05-12T06:52:06.921Z,102451.38
2019-05-12T06:54:33.588Z,102461.32
2019-05-12T06:57:18.710Z,102461.77
2019-05-12T06:59:33.895Z,102460.20
2019-05-12T07:02:03.406Z,102465.13
2019-05-12T07:04:33.981Z,102472.05
2019-05-12T07:07:05.653Z,102470.44
2019-05-12T07:09:36.712Z,102469.79
2019-05-12T07:12:07.103Z,102470.77
2019-05-12T07:14:37.399Z,102476.55
2019-05-12T07:17:07.878Z,102480.00
2019-05-12T07:19:37.149Z,102491.13
2019-05-12T07:22:18.085Z,102497.13
2019-05-12T07:24:40.937Z,102492.69
2019-05-12T07:27:09.302Z,102506.27
2019-05-12T07:29:37.858Z,102501.22
2019-05-12T07:32:15.159Z,102515.95
2019-05-12T07:34:37.036Z,102522.88
2019-05-12T07:37:06.500Z,102514.34
2019-05-12T07:39:44.866Z,102522.54
2019-05-12T07:42:08.420Z,102524.02
2019-05-12T07:44:40.121Z,102529.65
2019-05-12T07:47:09.681Z,102533.45
2019-05-12T07:49:38.789Z,102531.05
2019-05-12T07:52:07.670Z,102525.13
2019-05-12T07:54:39.419Z,102525.63
2019-05-12T07:57:11.780Z,102543.12
2019-05-12T07:59:40.812Z,102541.30
2019-05-12T08:02:07.649Z,102537.45
2019-05-12T08:04:39.812Z,102544.22
2019-05-12T08:07:06.768Z,102548.49
2019-05-12T08:09:36.506Z,102542.64
2019-05-12T08:12:09.776Z,102545.70
2019-05-12T08:14:35.979Z,102548.16
2019-05-12T08:17:11.201Z,102552.23
2019-05-12T08:19:35.670Z,102554.73
2019-05-12T08:22:04.488Z,102549.86
2019-05-12T08:24:36.922Z,102557.27
2019-05-12T08:27:06.489Z,102561.27
2019-05-12T08:29:34.300Z,102569.33
2019-05-12T08:32:03.804Z,102571.97
2019-05-12T08:34:34.107Z,102567.44
2019-05-12T08:37:04.352Z,102566.56
2019-05-12T08:39:33.712Z,102577.88
2019-05-12T08:42:04.014Z,102568.26
2019-05-12T08:44:35.128Z,102582.58
2019-05-12T08:47:03.961Z,102576.46
2019-05-12T08:49:49.498Z,102574.32
2019-05-12T08:52:03.860Z,102576.97
2019-05-12T08:54:33.647Z,102581.73
2019-05-12T08:57:03.884Z,102573.17
2019-05-12T08:59:34.190Z,102580.70
2019-05-12T09:02:07.324Z,102589.86
2019-05-12T09:04:33.913Z,102586.83
2019-05-12T09:07:04.382Z,102591.90
2019-05-12T09:09:33.743Z,102595.01
2019-05-12T09:12:03.576Z,102605.61
2019-05-12T09:14:35.526Z,102605.21
2019-05-12T09:17:07.284Z,102593.91
2019-05-12T09:19:33.327Z,102606.48
2019-05-12T09:22:07.189Z,102607.42
2019-05-12T09:24:33.765Z,102603.33
2019-05-12T09:27:06.923Z,102611.62
2019-05-12T09:29:34.156Z,102602.82
2019-05-12T09:32:05.475Z,102611.05
2019-05-12T09:34:33.673Z,102622.43
2019-05-12T09:37:04.012Z,102621.99
2019-05-12T09:39:34.045Z,102618.27
2019-05-12T09:42:03.866Z,102615.53
2019-05-12T09:44:34.031Z,102617.58
2019-05-12T09:47:04.094Z,102615.16
2019-05-12T09:49:39.193Z,102621.33
2019-05-12T09:52:03.877Z,102620.97
2019-05-12T09:54:35.464Z,102626.93
2019-05-12T09:57:04.423Z,102622.34
2019-05-12T09:59:33.642Z,102623.89
2019-05-12T10:02:03.654Z,102621.25
2019-05-12T10:04:33.109Z,102629.27
2019-05-12T10:07:03.770Z,102642.64
2019-05-12T10:09:33.525Z,102634.73
2019-05-12T10:12:03.289Z,102626.40
2019-05-12T10:14:32.839Z,102632.88
2019-05-12T10:17:03.443Z,102638.08
2019-05-12T10:19:33.895Z,102639.16
2019-05-12T10:22:02.444Z,102631.03
2019-05-12T10:24:34.448Z,102631.58
2019-05-12T10:27:03.786Z,102628.47
2019-05-12T10:29:32.492Z,102641.17
2019-05-12T10:32:01.285Z,102631.77
2019-05-12T10:34:35.783Z,102632.14
2019-05-12T10:37:00.367Z,102642.98
2019-05-12T10:39:29.127Z,102641.97
2019-05-12T10:41:57.797Z,102635.20
2019-05-12T10:44:29.898Z,102647.39
2019-05-12T10:46:58.528Z,102642.58
2019-05-12T10:49:27.254Z,102649.70
2019-05-12T10:51:55.928Z,102656.84
2019-05-12T10:54:24.626Z,102647.81
2019-05-12T10:56:54.578Z,102647.27
2019-05-12T10:59:32.115Z,102656.43
2019-05-12T11:01:54.172Z,102663.39
2019-05-12T11:04:35.239Z,102645.62
2019-05-12T11:06:53.915Z,102654.61
2019-05-12T11:09:29.376Z,102652.09
2019-05-12T11:11:54.080Z,102655.50
2019-05-12T11:14:26.342Z,102660.55
2019-05-12T11:16:54.736Z,102648.72
2019-05-12T11:19:23.389Z,102654.23
2019-05-12T11:21:53.619Z,102664.33
2019-05-12T11:24:23.478Z,102659.38
2019-05-12T11:26:53.630Z,102667.75
2019-05-12T11:29:23.492Z,102669.11
2019-05-12T11:31:53.886Z,102680.47
2019-05-12T11:34:24.638Z,102678.36
2019-05-12T11:36:54.579Z,102670.48
2019-05-12T11:39:25.485Z,102673.05
2019-05-12T11:41:55.455Z,102674.01
2019-05-12T11:44:24.214Z,102680.80
2019-05-12T11:46:54.754Z,102691.55
2019-05-12T11:49:26.300Z,102684.44
2019-05-12T11:51:54.506Z,102699.23
2019-05-12T11:54:24.231Z,102697.20
2019-05-12T11:56:53.874Z,102693.96
2019-05-12T11:59:23.766Z,102705.13
2019-05-12T12:01:53.979Z,102703.30
2019-05-12T12:04:24.635Z,102709.17
2019-05-12T12:06:54.822Z,102706.41
2019-05-12T12:09:23.500Z,102703.80
2019-05-12T12:11:54.690Z,102705.48
2019-05-12T12:14:23.850Z,102714.86
2019-05-12T12:16:54.426Z,102718.02
2019-05-12T12:19:26.158Z,102719.63
2019-05-12T12:21:53.794Z,102722.16
2019-05-12T12:24:29.789Z,102720.03
2019-05-12T12:26:53.751Z,102718.40
2019-05-12T12:29:24.116Z,102724.67
2019-05-12T12:31:54.833Z,102730.29
2019-05-12T12:34:29.950Z,102721.78
2019-05-12T12:36:54.589Z,102732.61
2019-05-12T12:39:23.885Z,102736.27
2019-05-12T12:41:58.649Z,102741.47
2019-05-12T12:44:24.166Z,102730.63
2019-05-12T12:46:59.775Z,102733.48
2019-05-12T12:49:23.511Z,102737.67
2019-05-12T12:51:52.292Z,102742.91
2019-05-12T12:54:21.017Z,102739.73
2019-05-12T12:56:49.747Z,102757.12
2019-05-12T12:59:21.362Z,102754.06
2019-05-12T13:01:50.023Z,102755.01
2019-05-12T13:04:18.756Z,102755.99
2019-05-12T13:06:47.459Z,102767.02
2019-05-12T13:09:22.404Z,102754.23
2019-05-12T13:11:46.575Z,102766.37
2019-05-12T13:14:17.326Z,102760.11
2019-05-12T13:16:49.506Z,102761.92
2019-05-12T13:19:17.209Z,102757.22
2019-05-12T13:21:46.183Z,102762.63
2019-05-12T13:24:14.915Z,102765.03
2019-05-12T13:26:43.670Z,102766.42
2019-05-12T13:29:14.262Z,102777.17
2019-05-12T13:31:46.406Z,102764.81
2019-05-12T13:34:14.393Z,102763.16
2019-05-12T13:36:44.005Z,102760.32
2019-05-12T13:39:16.387Z,102768.79
2019-05-12T13:41:43.838Z,102763.92
2019-05-12T13:44:13.709Z,102764.65
2019-05-12T13:46:43.760Z,102772.84
2019-05-12T13:49:14.046Z,102771.22
2019-05-12T13:51:47.595Z,102773.98
2019-05-12T13:54:14.382Z,102774.95
2019-05-12T13:56:44.321Z,102779.41
2019-05-12T13:59:20.623Z,102783.88
2019-05-12T14:01:45.703Z,102787.42
2019-05-12T14:04:14.101Z,102795.08
2019-05-12T14:06:42.748Z,102795.30
2019-05-12T14:09:13.644Z,102793.91
2019-05-12T14:11:43.642Z,102791.77
2019-05-12T14:14:15.210Z,102799.02
2019-05-12T14:16:44.669Z,102788.02
2019-05-12T14:19:14.388Z,102798.16
2019-05-12T14:21:43.390Z,102801.34
2019-05-12T14:24:14.030Z,102804.61
2019-05-12T14:26:45.382Z,102808.77
2019-05-12T14:29:14.391Z,102809.14
2019-05-12T14:31:49.963Z,102806.01
2019-05-12T14:34:19.298Z,102815.63
2019-05-12T14:36:43.928Z,102809.23
2019-05-12T14:39:13.331Z,102814.37
2019-05-12T14:41:44.500Z,102816.97
2019-05-12T14:44:13.781Z,102813.35
2019-05-12T14:46:46.330Z,102818.69
2019-05-12T14:49:14.168Z,102824.44
2019-05-12T14:51:44.298Z,102821.85
2019-05-12T14:54:13.507Z,102829.56
2019-05-12T14:56:47.129Z,102827.75
2019-05-12T14:59:14.360Z,102836.90
2019-05-12T15:01:56.537Z,102844.22
2019-05-12T15:04:13.854Z,102840.07
2019-05-12T15:06:44.332Z,102835.90
2019-05-12T15:09:20.055Z,102830.86
2019-05-12T15:11:45.203Z,102836.06
2019-05-12T15:14:13.973Z,102837.78
2019-05-12T15:16:44.883Z,102828.56
2019-05-12T15:19:13.926Z,102832.61
2019-05-12T15:21:43.716Z,102834.83
2019-05-12T15:24:17.044Z,102835.18
2019-05-12T15:26:43.365Z,102841.97
2019-05-12T15:29:18.039Z,102842.00
2019-05-12T15:31:53.262Z,102840.48
2019-05-12T15:34:14.683Z,102840.41
2019-05-12T15:36:51.599Z,102839.78
2019-05-12T15:39:14.284Z,102876.03
2019-05-12T15:41:43.072Z,102843.09
2019-05-12T15:44:14.335Z,102846.99
2019-05-12T15:46:45.981Z,102838.38
2019-05-12T15:49:12.747Z,102837.91
2019-05-12T15:51:53.109Z,102847.69
2019-05-12T15:54:14.487Z,102840.79
2019-05-12T15:56:42.445Z,102852.36
2019-05-12T15:59:11.184Z,102853.67
2019-05-12T16:01:39.861Z,102851.05
2019-05-12T16:04:11.725Z,102861.48
2019-05-12T16:06:45.098Z,102860.24
2019-05-12T16:09:09.358Z,102857.83
2019-05-12T16:11:38.140Z,102865.89
2019-05-12T16:14:06.821Z,102865.23
2019-05-12T16:16:42.370Z,102871.01
2019-05-12T16:19:06.061Z,102870.73
2019-05-12T16:21:35.669Z,102872.75
2019-05-12T16:24:11.125Z,102886.31
2019-05-12T16:26:36.522Z,102878.09
2019-05-12T16:29:06.977Z,102883.24
2019-05-12T16:31:39.436Z,102876.25
2019-05-12T16:34:06.545Z,102886.23
2019-05-12T16:36:35.277Z,102894.22
2019-05-12T16:39:07.780Z,102883.05
2019-05-12T16:41:36.695Z,102897.20
2019-05-12T16:44:07.562Z,102887.01
2019-05-12T16:46:35.944Z,102890.48
2019-05-12T16:49:04.709Z,102893.73
2019-05-12T16:51:33.421Z,102900.20
2019-05-12T16:54:03.646Z,102905.98
2019-05-12T16:56:33.925Z,102910.36
2019-05-12T16:59:07.118Z,102906.78
2019-05-12T17:01:33.734Z,102902.30
2019-05-12T17:04:04.342Z,102907.95
2019-05-12T17:06:34.901Z,102910.55
2019-05-12T17:09:05.482Z,102907.05
2019-05-12T17:11:37.220Z,102906.94
2019-05-12T17:14:06.734Z,102911.42
2019-05-12T17:16:41.691Z,102906.20
2019-05-12T17:19:10.221Z,102914.19
2019-05-12T17:21:36.482Z,102918.53
2019-05-12T17:24:05.150Z,102920.91
2019-05-12T17:26:33.847Z,102922.90
2019-05-12T17:29:03.471Z,102920.78
2019-05-12T17:31:33.781Z,102924.14
2019-05-12T17:34:06.374Z,102920.53
2019-05-12T17:36:34.271Z,102933.80
2019-05-12T17:39:04.900Z,102928.09
2019-05-12T17:41:40.627Z,102939.25
2019-05-12T17:44:04.977Z,102939.00
2019-05-12T17:46:37.879Z,102943.07
2019-05-12T17:49:04.138Z,102942.66
2019-05-12T17:51:32.829Z,102955.42
2019-05-12T17:54:06.213Z,102953.41
2019-05-12T17:56:37.414Z,102961.81
2019-05-12T17:59:04.358Z,102962.76
2019-05-12T18:01:35.496Z,102961.53
2019-05-12T18:04:04.260Z,102971.11
2019-05-12T18:06:34.083Z,102972.47
2019-05-12T18:09:04.008Z,102966.11
2019-05-12T18:11:34.033Z,102970.67
2019-05-12T18:14:06.874Z,102973.73
2019-05-12T18:16:33.960Z,102986.22
2019-05-12T18:19:03.371Z,102986.53
2019-05-12T18:21:34.055Z,102987.10
2019-05-12T18:24:08.968Z,102994.88
2019-05-12T18:26:33.845Z,103001.26
2019-05-12T18:29:04.179Z,102996.65
2019-05-12T18:31:33.433Z,103002.21
2019-05-12T18:34:04.803Z,103010.95
2019-05-12T18:36:34.153Z,103009.55
2019-05-12T18:39:09.659Z,103013.36
2019-05-12T18:41:33.799Z,103014.89
2019-05-12T18:44:04.433Z,103020.38
2019-05-12T18:46:36.210Z,103019.98
2019-05-12T18:49:11.963Z,103017.23
2019-05-12T18:51:34.486Z,103019.59
2019-05-12T18:54:09.532Z,103014.30
2019-05-12T18:56:35.469Z,103014.05
2019-05-12T18:59:11.350Z,103024.66
2019-05-12T19:01:35.632Z,103025.87
2019-05-12T19:04:04.413Z,103020.47
2019-05-12T19:06:33.788Z,103025.08
2019-05-12T19:09:18.959Z,103038.88
2019-05-12T19:11:47.646Z,103027.45
2019-05-12T19:14:16.337Z,103036.31
2019-05-12T19:16:45.109Z,103043.53
2019-05-12T19:19:16.608Z,103037.78
2019-05-12T19:22:00.704Z,103044.00
2019-05-12T19:24:20.220Z,103043.53
2019-05-12T19:26:49.052Z,103050.42
2019-05-12T19:29:17.839Z,103055.77
2019-05-12T19:31:52.706Z,103062.57
2019-05-12T19:34:22.570Z,103065.38
2019-05-12T19:36:49.432Z,103069.28
2019-05-12T19:39:18.497Z,103072.83
2019-05-12T19:41:47.250Z,103072.05
2019-05-12T19:44:20.086Z,103078.28
2019-05-12T19:46:49.614Z,103089.71
2019-05-12T19:49:20.242Z,103086.30
2019-05-12T19:51:48.976Z,103095.70
2019-05-12T19:54:19.359Z,103098.80
2019-05-12T19:56:48.261Z,103097.03
2019-05-12T19:59:16.953Z,103091.22
2019-05-12T20:01:45.626Z,103099.05
2019-05-12T20:04:29.657Z,103088.63
2019-05-12T20:06:44.821Z,103095.10
2019-05-12T20:09:14.623Z,103095.75
2019-05-12T20:11:43.620Z,103094.44
2019-05-12T20:14:19.008Z,103097.43
2019-05-12T20:16:43.953Z,103101.83
2019-05-12T20:19:13.627Z,103096.52
2019-05-12T20:21:44.370Z,103100.38
2019-05-12T20:24:14.352Z,103102.47
2019-05-12T20:26:46.418Z,103107.11
2019-05-12T20:29:18.275Z,103102.30
2019-05-12T20:31:48.787Z,103110.23
2019-05-12T20:34:17.602Z,103114.55
2019-05-12T20:36:46.415Z,103106.97
2019-05-12T20:39:16.941Z,103121.11
2019-05-12T20:41:45.565Z,103122.17
2019-05-12T20:44:17.255Z,103122.05
2019-05-12T20:46:46.145Z,103127.59
2019-05-12T20:49:15.139Z,103121.83
2019-05-12T20:51:48.213Z,103130.45
2019-05-12T20:54:18.072Z,103126.81
2019-05-12T20:56:46.295Z,103133.67
2019-05-12T20:59:22.158Z,103137.21
2019-05-12T21:01:45.456Z,103132.42
2019-05-12T21:04:14.293Z,103142.48
2019-05-12T21:06:43.211Z,103138.49
2019-05-12T21:09:14.349Z,103135.37
2019-05-12T21:11:44.225Z,103140.00
2019-05-12T21:14:14.674Z,103148.48
2019-05-12T21:16:44.951Z,103149.68
2019-05-12T21:19:14.343Z,103148.02
2019-05-12T21:21:44.368Z,103152.23
2019-05-12T21:24:13.940Z,103154.41
2019-05-12T21:26:44.097Z,103160.84
2019-05-12T21:29:13.696Z,103153.11
2019-05-12T21:31:44.581Z,103160.45
2019-05-12T21:34:21.053Z,103158.48
2019-05-12T21:36:44.405Z,103159.83
2019-05-12T21:39:13.974Z,103164.53
2019-05-12T21:41:50.104Z,103167.38
2019-05-12T21:44:14.071Z,103167.94
2019-05-12T21:46:46.927Z,103165.00
2019-05-12T21:49:15.603Z,103168.75
2019-05-12T21:51:44.587Z,103173.03
2019-05-12T21:54:13.668Z,103180.67
2019-05-12T21:56:44.919Z,103183.22
2019-05-12T21:59:15.375Z,103184.81
2019-05-12T22:01:45.960Z,103189.50
2019-05-12T22:04:16.061Z,103187.97
2019-05-12T22:06:44.773Z,103188.45
2019-05-12T22:09:14.708Z,103190.88
2019-05-12T22:11:50.885Z,103194.24
2019-05-12T22:14:15.797Z,103194.45
2019-05-12T22:16:46.822Z,103198.58
2019-05-12T22:19:15.770Z,103205.66
2019-05-12T22:21:49.366Z,103211.13
2019-05-12T22:24:14.853Z,103204.18
2019-05-12T22:26:46.595Z,103204.48
2019-05-12T22:29:14.437Z,103206.80
2019-05-12T22:31:44.738Z,103212.25
2019-05-12T22:34:13.598Z,103213.96
2019-05-12T22:36:45.358Z,103216.67
2019-05-12T22:39:14.314Z,103217.61
2019-05-12T22:41:43.219Z,103220.92
2019-05-12T22:44:18.214Z,103222.38
2019-05-12T22:46:43.574Z,103221.64
2019-05-12T22:49:16.945Z,103224.80
2019-05-12T22:51:43.635Z,103221.77
2019-05-12T22:54:13.623Z,103222.92
2019-05-12T22:56:44.176Z,103223.08
2019-05-12T22:59:13.784Z,103225.44
2019-05-12T23:01:46.351Z,103226.05
2019-05-12T23:04:14.237Z,103232.06
2019-05-12T23:06:46.482Z,103229.64
2019-05-12T23:09:13.664Z,103229.80
2019-05-12T23:11:42.406Z,103227.22
2019-05-12T23:14:12.519Z,103223.58
2019-05-12T23:16:44.132Z,103227.64
2019-05-12T23:19:12.387Z,103234.85
2019-05-12T23:21:43.882Z,103236.91
2019-05-12T23:24:14.125Z,103242.92
2019-05-12T23:26:47.812Z,103244.01
2019-05-12T23:29:14.581Z,103241.75
2019-05-12T23:31:43.491Z,103239.20
2019-05-12T23:34:14.496Z,103234.88
2019-05-12T23:36:44.004Z,103232.84
2019-05-12T23:39:14.272Z,103231.34
2019-05-12T23:41:43.777Z,103232.91
2019-05-12T23:44:13.540Z,103224.22
2019-05-12T23:46:43.742Z,103230.26
2019-05-12T23:49:14.342Z,103227.13
2019-05-12T23:51:43.832Z,103226.86
2019-05-12T23:54:14.362Z,103233.73
2019-05-12T23:56:44.436Z,103225.41
2019-05-12T23:59:13.595Z,103223.45
